sensor_id;sensor_type;location;lat;lon;timestamp;P1;durP1;ratioP1;P2;durP2;ratioP2
19257;SDS011;9763;48.780;9.212;2022-09-02T00:01:30;2.03;;;1.30;;
19257;SDS011;9763;48.780;9.212;2022-09-02T00:04:58;1.70;;;1.50;;
19257;SDS011;9763;48.780;9.212;2022-09-02T00:08:22;2.30;;;1.30;;
19257;SDS011;9763;48.780;9.212;2022-09-02T00:11:47;3.70;;;1.60;;
19257;SDS011;9763;48.780;9.212;2022-09-02T00:15:13;1.90;;;1.50;;
19257;SDS011;9763;48.780;9.212;2022-09-02T00:18:37;2.00;;;1.60;;
19257;SDS011;9763;48.780;9.212;2022-09-02T00:22:06;2.27;;;1.30;;
19257;SDS011;9763;48.780;9.212;2022-09-02T00:25:30;4.47;;;1.87;;
19257;SDS011;9763;48.780;9.212;2022-09-02T00:28:55;1.93;;;1.60;;
19257;SDS011;9763;48.780;9.212;2022-09-02T00:32:19;4.50;;;1.60;;
19257;SDS011;9763;48.780;9.212;2022-09-02T00:35:43;2.20;;;1.70;;
19257;SDS011;9763;48.780;9.212;2022-09-02T00:39:07;1.70;;;1.60;;
19257;SDS011;9763;48.780;9.212;2022-09-02T00:42:31;1.90;;;1.27;;
19257;SDS011;9763;48.780;9.212;2022-09-02T00:45:57;1.60;;;1.27;;
19257;SDS011;9763;48.780;9.212;2022-09-02T00:49:22;1.80;;;1.30;;
19257;SDS011;9763;48.780;9.212;2022-09-02T00:52:50;1.60;;;1.20;;
19257;SDS011;9763;48.780;9.212;2022-09-02T00:56:18;1.50;;;1.40;;
19257;SDS011;9763;48.780;9.212;2022-09-02T00:59:47;1.60;;;1.30;;
19257;SDS011;9763;48.780;9.212;2022-09-02T01:03:21;1.60;;;1.50;;
19257;SDS011;9763;48.780;9.212;2022-09-02T01:06:48;2.13;;;1.50;;
19257;SDS011;9763;48.780;9.212;2022-09-02T01:10:13;2.10;;;1.83;;
19257;SDS011;9763;48.780;9.212;2022-09-02T01:13:40;1.70;;;1.40;;
19257;SDS011;9763;48.780;9.212;2022-09-02T01:17:05;2.00;;;1.50;;
19257;SDS011;9763;48.780;9.212;2022-09-02T01:20:30;1.33;;;1.10;;
19257;SDS011;9763;48.780;9.212;2022-09-02T01:23:55;1.77;;;1.23;;
19257;SDS011;9763;48.780;9.212;2022-09-02T01:27:20;1.67;;;1.50;;
19257;SDS011;9763;48.780;9.212;2022-09-02T01:30:46;1.50;;;1.13;;
19257;SDS011;9763;48.780;9.212;2022-09-02T01:34:13;1.30;;;1.00;;
19257;SDS011;9763;48.780;9.212;2022-09-02T01:37:37;1.40;;;1.10;;
19257;SDS011;9763;48.780;9.212;2022-09-02T01:41:17;1.50;;;1.37;;
19257;SDS011;9763;48.780;9.212;2022-09-02T01:44:41;2.37;;;1.30;;
19257;SDS011;9763;48.780;9.212;2022-09-02T01:48:06;1.50;;;1.20;;
19257;SDS011;9763;48.780;9.212;2022-09-02T01:51:32;1.40;;;1.20;;
19257;SDS011;9763;48.780;9.212;2022-09-02T01:54:56;1.80;;;1.10;;
19257;SDS011;9763;48.780;9.212;2022-09-02T01:58:21;1.70;;;1.40;;
19257;SDS011;9763;48.780;9.212;2022-09-02T02:01:45;1.47;;;1.00;;
19257;SDS011;9763;48.780;9.212;2022-09-02T02:05:12;1.57;;;1.20;;
19257;SDS011;9763;48.780;9.212;2022-09-02T02:08:38;1.40;;;1.00;;
19257;SDS011;9763;48.780;9.212;2022-09-02T02:12:02;1.73;;;1.40;;
19257;SDS011;9763;48.780;9.212;2022-09-02T02:15:29;1.30;;;1.10;;
19257;SDS011;9763;48.780;9.212;2022-09-02T02:18:52;1.50;;;1.20;;
19257;SDS011;9763;48.780;9.212;2022-09-02T02:22:16;1.60;;;1.20;;
19257;SDS011;9763;48.780;9.212;2022-09-02T02:25:39;1.90;;;1.30;;
19257;SDS011;9763;48.780;9.212;2022-09-02T02:29:03;1.53;;;1.37;;
19257;SDS011;9763;48.780;9.212;2022-09-02T02:32:28;1.40;;;1.10;;
19257;SDS011;9763;48.780;9.212;2022-09-02T02:35:54;1.43;;;1.20;;
19257;SDS011;9763;48.780;9.212;2022-09-02T02:39:18;1.40;;;1.20;;
19257;SDS011;9763;48.780;9.212;2022-09-02T02:42:42;1.40;;;1.13;;
19257;SDS011;9763;48.780;9.212;2022-09-02T02:46:06;1.60;;;1.30;;
19257;SDS011;9763;48.780;9.212;2022-09-02T02:49:36;1.40;;;1.20;;
19257;SDS011;9763;48.780;9.212;2022-09-02T02:53:00;1.70;;;1.40;;
19257;SDS011;9763;48.780;9.212;2022-09-02T02:56:24;1.93;;;1.10;;
19257;SDS011;9763;48.780;9.212;2022-09-02T02:59:49;1.40;;;1.20;;
19257;SDS011;9763;48.780;9.212;2022-09-02T03:03:13;1.50;;;1.20;;
19257;SDS011;9763;48.780;9.212;2022-09-02T03:06:43;1.50;;;1.20;;
19257;SDS011;9763;48.780;9.212;2022-09-02T03:10:09;3.00;;;1.30;;
19257;SDS011;9763;48.780;9.212;2022-09-02T03:13:36;1.73;;;1.20;;
19257;SDS011;9763;48.780;9.212;2022-09-02T03:17:00;1.60;;;1.30;;
19257;SDS011;9763;48.780;9.212;2022-09-02T03:20:25;2.27;;;1.27;;
19257;SDS011;9763;48.780;9.212;2022-09-02T03:23:53;1.60;;;1.27;;
19257;SDS011;9763;48.780;9.212;2022-09-02T03:27:18;3.00;;;1.30;;
19257;SDS011;9763;48.780;9.212;2022-09-02T03:30:43;1.60;;;1.33;;
19257;SDS011;9763;48.780;9.212;2022-09-02T03:34:10;1.87;;;1.20;;
19257;SDS011;9763;48.780;9.212;2022-09-02T03:37:35;1.60;;;1.10;;
19257;SDS011;9763;48.780;9.212;2022-09-02T03:41:01;2.23;;;1.37;;
19257;SDS011;9763;48.780;9.212;2022-09-02T03:44:24;2.47;;;1.70;;
19257;SDS011;9763;48.780;9.212;2022-09-02T03:47:48;1.90;;;1.40;;
19257;SDS011;9763;48.780;9.212;2022-09-02T03:51:18;2.50;;;1.27;;
19257;SDS011;9763;48.780;9.212;2022-09-02T03:54:44;1.80;;;1.40;;
19257;SDS011;9763;48.780;9.212;2022-09-02T03:58:09;2.13;;;1.60;;
19257;SDS011;9763;48.780;9.212;2022-09-02T04:01:33;1.70;;;1.40;;
19257;SDS011;9763;48.780;9.212;2022-09-02T04:04:58;1.87;;;1.60;;
19257;SDS011;9763;48.780;9.212;2022-09-02T04:08:22;1.83;;;1.40;;
19257;SDS011;9763;48.780;9.212;2022-09-02T04:11:49;1.90;;;1.57;;
19257;SDS011;9763;48.780;9.212;2022-09-02T04:15:14;2.17;;;1.90;;
19257;SDS011;9763;48.780;9.212;2022-09-02T04:18:40;1.50;;;1.40;;
19257;SDS011;9763;48.780;9.212;2022-09-02T04:22:05;1.80;;;1.50;;
19257;SDS011;9763;48.780;9.212;2022-09-02T04:25:30;3.10;;;1.40;;
19257;SDS011;9763;48.780;9.212;2022-09-02T04:28:54;1.30;;;1.10;;
19257;SDS011;9763;48.780;9.212;2022-09-02T04:32:21;6.13;;;1.70;;
19257;SDS011;9763;48.780;9.212;2022-09-02T04:35:47;1.50;;;1.40;;
19257;SDS011;9763;48.780;9.212;2022-09-02T04:39:12;1.50;;;1.30;;
19257;SDS011;9763;48.780;9.212;2022-09-02T04:42:36;1.40;;;1.23;;
19257;SDS011;9763;48.780;9.212;2022-09-02T04:46:02;1.70;;;1.30;;
19257;SDS011;9763;48.780;9.212;2022-09-02T04:49:30;1.67;;;1.40;;
19257;SDS011;9763;48.780;9.212;2022-09-02T04:52:55;1.73;;;1.30;;
19257;SDS011;9763;48.780;9.212;2022-09-02T04:56:20;1.90;;;1.50;;
19257;SDS011;9763;48.780;9.212;2022-09-02T04:59:47;2.40;;;1.20;;
19257;SDS011;9763;48.780;9.212;2022-09-02T05:03:10;1.80;;;1.53;;
19257;SDS011;9763;48.780;9.212;2022-09-02T05:06:38;1.80;;;1.40;;
19257;SDS011;9763;48.780;9.212;2022-09-02T05:10:08;1.70;;;1.37;;
19257;SDS011;9763;48.780;9.212;2022-09-02T05:13:36;1.70;;;1.10;;
19257;SDS011;9763;48.780;9.212;2022-09-02T05:17:01;1.93;;;1.43;;
19257;SDS011;9763;48.780;9.212;2022-09-02T05:20:31;1.50;;;1.20;;
19257;SDS011;9763;48.780;9.212;2022-09-02T05:23:56;1.80;;;1.20;;
19257;SDS011;9763;48.780;9.212;2022-09-02T05:27:21;1.60;;;1.33;;
19257;SDS011;9763;48.780;9.212;2022-09-02T05:30:47;1.60;;;1.27;;
19257;SDS011;9763;48.780;9.212;2022-09-02T05:34:11;1.60;;;1.30;;
19257;SDS011;9763;48.780;9.212;2022-09-02T05:37:35;1.80;;;1.40;;
19257;SDS011;9763;48.780;9.212;2022-09-02T05:41:04;2.23;;;1.30;;
19257;SDS011;9763;48.780;9.212;2022-09-02T05:44:29;1.77;;;1.67;;
19257;SDS011;9763;48.780;9.212;2022-09-02T05:47:55;1.80;;;1.60;;
19257;SDS011;9763;48.780;9.212;2022-09-02T05:51:21;2.57;;;1.50;;
19257;SDS011;9763;48.780;9.212;2022-09-02T05:54:48;2.30;;;1.80;;
19257;SDS011;9763;48.780;9.212;2022-09-02T05:58:15;1.63;;;1.40;;
19257;SDS011;9763;48.780;9.212;2022-09-02T06:01:39;1.60;;;1.50;;
19257;SDS011;9763;48.780;9.212;2022-09-02T06:05:03;1.60;;;1.40;;
19257;SDS011;9763;48.780;9.212;2022-09-02T06:08:36;2.20;;;1.47;;
19257;SDS011;9763;48.780;9.212;2022-09-02T06:12:01;2.47;;;1.50;;
19257;SDS011;9763;48.780;9.212;2022-09-02T06:15:29;1.90;;;1.50;;
19257;SDS011;9763;48.780;9.212;2022-09-02T06:18:55;3.20;;;2.17;;
19257;SDS011;9763;48.780;9.212;2022-09-02T06:22:19;1.90;;;1.70;;
19257;SDS011;9763;48.780;9.212;2022-09-02T06:25:44;2.37;;;1.70;;
19257;SDS011;9763;48.780;9.212;2022-09-02T06:29:10;1.80;;;1.50;;
19257;SDS011;9763;48.780;9.212;2022-09-02T06:32:36;3.50;;;1.60;;
19257;SDS011;9763;48.780;9.212;2022-09-02T06:36:04;1.70;;;1.40;;
19257;SDS011;9763;48.780;9.212;2022-09-02T06:39:30;1.87;;;1.33;;
19257;SDS011;9763;48.780;9.212;2022-09-02T06:42:54;2.30;;;1.43;;
19257;SDS011;9763;48.780;9.212;2022-09-02T06:46:26;2.47;;;1.60;;
19257;SDS011;9763;48.780;9.212;2022-09-02T06:49:57;1.63;;;1.10;;
19257;SDS011;9763;48.780;9.212;2022-09-02T06:53:21;1.47;;;1.10;;
19257;SDS011;9763;48.780;9.212;2022-09-02T06:56:46;1.80;;;1.60;;
19257;SDS011;9763;48.780;9.212;2022-09-02T07:00:16;2.13;;;1.60;;
19257;SDS011;9763;48.780;9.212;2022-09-02T07:03:41;1.90;;;1.20;;
19257;SDS011;9763;48.780;9.212;2022-09-02T07:07:24;1.73;;;1.10;;
19257;SDS011;9763;48.780;9.212;2022-09-02T07:10:55;2.47;;;1.40;;
19257;SDS011;9763;48.780;9.212;2022-09-02T07:14:20;1.77;;;1.23;;
19257;SDS011;9763;48.780;9.212;2022-09-02T07:17:48;1.97;;;1.43;;
19257;SDS011;9763;48.780;9.212;2022-09-02T07:21:21;1.73;;;1.30;;
19257;SDS011;9763;48.780;9.212;2022-09-02T07:24:46;1.80;;;1.10;;
19257;SDS011;9763;48.780;9.212;2022-09-02T07:28:10;1.50;;;1.23;;
19257;SDS011;9763;48.780;9.212;2022-09-02T07:31:35;2.00;;;1.10;;
19257;SDS011;9763;48.780;9.212;2022-09-02T07:35:02;2.07;;;1.30;;
19257;SDS011;9763;48.780;9.212;2022-09-02T07:38:28;1.80;;;1.30;;
19257;SDS011;9763;48.780;9.212;2022-09-02T07:41:55;2.30;;;1.17;;
19257;SDS011;9763;48.780;9.212;2022-09-02T07:45:22;1.60;;;1.20;;
19257;SDS011;9763;48.780;9.212;2022-09-02T07:48:47;2.07;;;1.00;;
19257;SDS011;9763;48.780;9.212;2022-09-02T07:52:12;1.50;;;0.90;;
19257;SDS011;9763;48.780;9.212;2022-09-02T07:55:36;2.13;;;1.03;;
19257;SDS011;9763;48.780;9.212;2022-09-02T07:59:04;1.77;;;0.90;;
19257;SDS011;9763;48.780;9.212;2022-09-02T08:02:28;1.40;;;0.90;;
19257;SDS011;9763;48.780;9.212;2022-09-02T08:05:52;1.80;;;1.10;;
19257;SDS011;9763;48.780;9.212;2022-09-02T08:09:17;1.40;;;0.97;;
19257;SDS011;9763;48.780;9.212;2022-09-02T08:12:42;1.50;;;0.90;;
19257;SDS011;9763;48.780;9.212;2022-09-02T08:16:08;1.47;;;1.00;;
19257;SDS011;9763;48.780;9.212;2022-09-02T08:19:32;1.50;;;1.00;;
19257;SDS011;9763;48.780;9.212;2022-09-02T08:22:56;1.30;;;0.90;;
19257;SDS011;9763;48.780;9.212;2022-09-02T08:26:33;1.70;;;0.90;;
19257;SDS011;9763;48.780;9.212;2022-09-02T08:29:57;1.37;;;0.83;;
19257;SDS011;9763;48.780;9.212;2022-09-02T08:33:23;1.37;;;0.90;;
19257;SDS011;9763;48.780;9.212;2022-09-02T08:36:47;1.30;;;0.90;;
19257;SDS011;9763;48.780;9.212;2022-09-02T08:40:18;1.30;;;0.83;;
19257;SDS011;9763;48.780;9.212;2022-09-02T08:43:46;1.70;;;1.00;;
19257;SDS011;9763;48.780;9.212;2022-09-02T08:47:15;6.13;;;1.00;;
19257;SDS011;9763;48.780;9.212;2022-09-02T08:50:49;1.30;;;0.70;;
19257;SDS011;9763;48.780;9.212;2022-09-02T08:54:21;1.50;;;1.10;;
19257;SDS011;9763;48.780;9.212;2022-09-02T08:57:53;1.40;;;0.90;;
19257;SDS011;9763;48.780;9.212;2022-09-02T09:01:20;1.30;;;0.80;;
19257;SDS011;9763;48.780;9.212;2022-09-02T09:04:57;1.50;;;0.80;;
19257;SDS011;9763;48.780;9.212;2022-09-02T09:08:37;2.27;;;0.87;;
19257;SDS011;9763;48.780;9.212;2022-09-02T09:12:14;1.50;;;1.10;;
19257;SDS011;9763;48.780;9.212;2022-09-02T09:15:53;1.40;;;0.90;;
19257;SDS011;9763;48.780;9.212;2022-09-02T09:19:25;1.40;;;0.87;;
19257;SDS011;9763;48.780;9.212;2022-09-02T09:23:05;1.40;;;0.90;;
19257;SDS011;9763;48.780;9.212;2022-09-02T09:26:44;1.57;;;0.93;;
19257;SDS011;9763;48.780;9.212;2022-09-02T09:30:09;1.67;;;1.00;;
19257;SDS011;9763;48.780;9.212;2022-09-02T09:33:36;2.07;;;1.00;;
19257;SDS011;9763;48.780;9.212;2022-09-02T09:37:00;1.50;;;1.07;;
19257;SDS011;9763;48.780;9.212;2022-09-02T09:40:25;1.40;;;0.90;;
19257;SDS011;9763;48.780;9.212;2022-09-02T09:43:54;1.40;;;1.00;;
19257;SDS011;9763;48.780;9.212;2022-09-02T09:47:18;1.40;;;1.10;;
19257;SDS011;9763;48.780;9.212;2022-09-02T09:50:47;1.30;;;0.90;;
19257;SDS011;9763;48.780;9.212;2022-09-02T09:54:27;1.87;;;0.77;;
19257;SDS011;9763;48.780;9.212;2022-09-02T09:57:51;2.10;;;0.80;;
19257;SDS011;9763;48.780;9.212;2022-09-02T10:01:32;2.10;;;1.00;;
19257;SDS011;9763;48.780;9.212;2022-09-02T10:05:08;1.40;;;0.90;;
19257;SDS011;9763;48.780;9.212;2022-09-02T10:08:40;1.93;;;0.80;;
19257;SDS011;9763;48.780;9.212;2022-09-02T10:12:16;1.83;;;0.80;;
19257;SDS011;9763;48.780;9.212;2022-09-02T10:16:07;1.40;;;1.00;;
19257;SDS011;9763;48.780;9.212;2022-09-02T10:19:51;6.30;;;0.80;;
19257;SDS011;9763;48.780;9.212;2022-09-02T10:23:37;2.40;;;1.10;;
19257;SDS011;9763;48.780;9.212;2022-09-02T10:27:10;1.40;;;0.90;;
19257;SDS011;9763;48.780;9.212;2022-09-02T10:30:39;1.60;;;0.90;;
19257;SDS011;9763;48.780;9.212;2022-09-02T10:34:19;2.53;;;0.80;;
19257;SDS011;9763;48.780;9.212;2022-09-02T10:38:05;3.30;;;1.00;;
19257;SDS011;9763;48.780;9.212;2022-09-02T10:41:50;2.97;;;1.00;;
19257;SDS011;9763;48.780;9.212;2022-09-02T10:45:27;1.40;;;0.80;;
19257;SDS011;9763;48.780;9.212;2022-09-02T10:48:59;1.40;;;0.90;;
19257;SDS011;9763;48.780;9.212;2022-09-02T10:52:35;1.50;;;0.97;;
19257;SDS011;9763;48.780;9.212;2022-09-02T10:56:20;1.50;;;0.83;;
19257;SDS011;9763;48.780;9.212;2022-09-02T10:59:51;1.30;;;0.80;;
19257;SDS011;9763;48.780;9.212;2022-09-02T11:03:37;1.63;;;0.80;;
19257;SDS011;9763;48.780;9.212;2022-09-02T11:07:11;1.30;;;0.80;;
19257;SDS011;9763;48.780;9.212;2022-09-02T11:10:44;1.40;;;0.80;;
19257;SDS011;9763;48.780;9.212;2022-09-02T11:14:22;2.40;;;1.10;;
19257;SDS011;9763;48.780;9.212;2022-09-02T11:17:54;2.53;;;0.87;;
19257;SDS011;9763;48.780;9.212;2022-09-02T11:21:36;1.60;;;1.07;;
19257;SDS011;9763;48.780;9.212;2022-09-02T11:25:13;1.77;;;0.70;;
19257;SDS011;9763;48.780;9.212;2022-09-02T11:28:45;1.30;;;0.90;;
19257;SDS011;9763;48.780;9.212;2022-09-02T11:32:19;1.30;;;0.80;;
19257;SDS011;9763;48.780;9.212;2022-09-02T11:35:51;1.50;;;0.80;;
19257;SDS011;9763;48.780;9.212;2022-09-02T11:39:16;1.40;;;0.97;;
19257;SDS011;9763;48.780;9.212;2022-09-02T11:43:15;1.40;;;0.83;;
19257;SDS011;9763;48.780;9.212;2022-09-02T11:51:23;1.30;;;0.90;;
19257;SDS011;9763;48.780;9.212;2022-09-02T11:55:23;1.40;;;0.90;;
19257;SDS011;9763;48.780;9.212;2022-09-02T11:58:56;2.10;;;0.83;;
19257;SDS011;9763;48.780;9.212;2022-09-02T12:02:30;1.60;;;1.10;;
19257;SDS011;9763;48.780;9.212;2022-09-02T12:06:03;1.20;;;0.70;;
19257;SDS011;9763;48.780;9.212;2022-09-02T12:09:41;1.40;;;0.83;;
19257;SDS011;9763;48.780;9.212;2022-09-02T12:13:08;1.50;;;0.90;;
19257;SDS011;9763;48.780;9.212;2022-09-02T12:16:35;1.40;;;0.90;;
19257;SDS011;9763;48.780;9.212;2022-09-02T12:24:48;1.97;;;0.90;;
19257;SDS011;9763;48.780;9.212;2022-09-02T12:28:15;1.60;;;0.90;;
19257;SDS011;9763;48.780;9.212;2022-09-02T12:31:51;1.40;;;0.83;;
19257;SDS011;9763;48.780;9.212;2022-09-02T12:35:28;1.40;;;0.80;;
19257;SDS011;9763;48.780;9.212;2022-09-02T12:43:21;1.30;;;0.80;;
19257;SDS011;9763;48.780;9.212;2022-09-02T12:46:54;1.30;;;0.77;;
19257;SDS011;9763;48.780;9.212;2022-09-02T12:50:27;1.37;;;0.80;;
19257;SDS011;9763;48.780;9.212;2022-09-02T12:53:56;1.40;;;0.90;;
19257;SDS011;9763;48.780;9.212;2022-09-02T12:57:25;1.70;;;1.00;;
19257;SDS011;9763;48.780;9.212;2022-09-02T13:01:05;1.50;;;0.93;;
19257;SDS011;9763;48.780;9.212;2022-09-02T13:04:39;1.40;;;0.90;;
19257;SDS011;9763;48.780;9.212;2022-09-02T13:16:35;2.60;;;1.00;;
19257;SDS011;9763;48.780;9.212;2022-09-02T13:28:50;1.50;;;0.93;;
19257;SDS011;9763;48.780;9.212;2022-09-02T13:32:40;1.77;;;0.97;;
19257;SDS011;9763;48.780;9.212;2022-09-02T13:36:05;1.30;;;0.77;;
19257;SDS011;9763;48.780;9.212;2022-09-02T13:39:30;2.00;;;0.93;;
19257;SDS011;9763;48.780;9.212;2022-09-02T13:42:54;1.97;;;0.80;;
19257;SDS011;9763;48.780;9.212;2022-09-02T13:46:22;1.60;;;1.00;;
19257;SDS011;9763;48.780;9.212;2022-09-02T13:49:47;1.40;;;0.80;;
19257;SDS011;9763;48.780;9.212;2022-09-02T13:53:18;1.33;;;0.90;;
19257;SDS011;9763;48.780;9.212;2022-09-02T13:57:09;2.43;;;1.00;;
19257;SDS011;9763;48.780;9.212;2022-09-02T14:00:39;1.60;;;1.00;;
19257;SDS011;9763;48.780;9.212;2022-09-02T14:04:05;1.47;;;1.00;;
19257;SDS011;9763;48.780;9.212;2022-09-02T14:07:39;1.70;;;0.90;;
19257;SDS011;9763;48.780;9.212;2022-09-02T14:11:06;1.70;;;1.00;;
19257;SDS011;9763;48.780;9.212;2022-09-02T14:14:36;1.40;;;0.90;;
19257;SDS011;9763;48.780;9.212;2022-09-02T14:18:10;1.40;;;0.90;;
19257;SDS011;9763;48.780;9.212;2022-09-02T14:21:45;1.50;;;1.00;;
19257;SDS011;9763;48.780;9.212;2022-09-02T14:25:13;1.33;;;0.90;;
19257;SDS011;9763;48.780;9.212;2022-09-02T14:28:38;1.33;;;0.97;;
19257;SDS011;9763;48.780;9.212;2022-09-02T14:32:02;2.00;;;1.10;;
19257;SDS011;9763;48.780;9.212;2022-09-02T14:35:34;1.40;;;0.80;;
19257;SDS011;9763;48.780;9.212;2022-09-02T14:39:08;1.30;;;0.80;;
19257;SDS011;9763;48.780;9.212;2022-09-02T14:42:44;1.70;;;1.00;;
19257;SDS011;9763;48.780;9.212;2022-09-02T14:46:25;1.40;;;0.90;;
19257;SDS011;9763;48.780;9.212;2022-09-02T14:49:51;1.40;;;0.80;;
19257;SDS011;9763;48.780;9.212;2022-09-02T14:53:18;1.60;;;1.00;;
19257;SDS011;9763;48.780;9.212;2022-09-02T14:56:45;1.80;;;0.80;;
19257;SDS011;9763;48.780;9.212;2022-09-02T15:00:13;1.50;;;1.00;;
19257;SDS011;9763;48.780;9.212;2022-09-02T15:03:39;1.30;;;0.90;;
19257;SDS011;9763;48.780;9.212;2022-09-02T15:07:04;1.30;;;0.80;;
19257;SDS011;9763;48.780;9.212;2022-09-02T15:10:28;1.77;;;0.90;;
19257;SDS011;9763;48.780;9.212;2022-09-02T15:13:54;1.40;;;1.00;;
19257;SDS011;9763;48.780;9.212;2022-09-02T15:17:19;1.60;;;0.90;;
19257;SDS011;9763;48.780;9.212;2022-09-02T15:20:42;1.33;;;0.90;;
19257;SDS011;9763;48.780;9.212;2022-09-02T15:24:06;1.40;;;1.00;;
19257;SDS011;9763;48.780;9.212;2022-09-02T15:27:30;1.30;;;0.90;;
19257;SDS011;9763;48.780;9.212;2022-09-02T15:30:55;1.73;;;0.90;;
19257;SDS011;9763;48.780;9.212;2022-09-02T15:34:21;3.30;;;0.90;;
19257;SDS011;9763;48.780;9.212;2022-09-02T15:37:48;1.40;;;0.97;;
19257;SDS011;9763;48.780;9.212;2022-09-02T15:41:12;1.90;;;1.00;;
19257;SDS011;9763;48.780;9.212;2022-09-02T15:44:38;1.70;;;0.90;;
19257;SDS011;9763;48.780;9.212;2022-09-02T15:48:02;1.50;;;1.00;;
19257;SDS011;9763;48.780;9.212;2022-09-02T15:51:29;1.30;;;0.90;;
19257;SDS011;9763;48.780;9.212;2022-09-02T15:54:53;1.50;;;0.80;;
19257;SDS011;9763;48.780;9.212;2022-09-02T15:58:16;1.63;;;0.90;;
19257;SDS011;9763;48.780;9.212;2022-09-02T16:01:40;1.50;;;0.90;;
19257;SDS011;9763;48.780;9.212;2022-09-02T16:05:08;1.53;;;1.20;;
19257;SDS011;9763;48.780;9.212;2022-09-02T16:08:35;1.50;;;0.90;;
19257;SDS011;9763;48.780;9.212;2022-09-02T16:11:59;1.30;;;0.97;;
19257;SDS011;9763;48.780;9.212;2022-09-02T16:15:23;1.83;;;0.90;;
19257;SDS011;9763;48.780;9.212;2022-09-02T16:18:48;2.17;;;0.93;;
19257;SDS011;9763;48.780;9.212;2022-09-02T16:22:13;1.40;;;0.97;;
19257;SDS011;9763;48.780;9.212;2022-09-02T16:25:38;1.40;;;1.00;;
19257;SDS011;9763;48.780;9.212;2022-09-02T16:29:03;1.80;;;1.03;;
19257;SDS011;9763;48.780;9.212;2022-09-02T16:32:29;1.40;;;0.90;;
19257;SDS011;9763;48.780;9.212;2022-09-02T16:35:52;1.60;;;0.90;;
19257;SDS011;9763;48.780;9.212;2022-09-02T16:39:16;2.93;;;0.93;;
19257;SDS011;9763;48.780;9.212;2022-09-02T16:42:42;1.70;;;1.00;;
19257;SDS011;9763;48.780;9.212;2022-09-02T16:46:06;1.57;;;0.90;;
19257;SDS011;9763;48.780;9.212;2022-09-02T16:49:30;1.40;;;1.00;;
19257;SDS011;9763;48.780;9.212;2022-09-02T16:52:55;1.50;;;0.80;;
19257;SDS011;9763;48.780;9.212;2022-09-02T16:56:18;1.40;;;0.90;;
19257;SDS011;9763;48.780;9.212;2022-09-02T16:59:43;1.30;;;0.90;;
19257;SDS011;9763;48.780;9.212;2022-09-02T17:03:07;2.07;;;1.13;;
19257;SDS011;9763;48.780;9.212;2022-09-02T17:06:32;3.43;;;0.90;;
19257;SDS011;9763;48.780;9.212;2022-09-02T17:10:02;1.30;;;0.90;;
19257;SDS011;9763;48.780;9.212;2022-09-02T17:13:27;1.67;;;0.87;;
19257;SDS011;9763;48.780;9.212;2022-09-02T17:16:52;2.47;;;1.20;;
19257;SDS011;9763;48.780;9.212;2022-09-02T17:20:15;1.20;;;0.77;;
19257;SDS011;9763;48.780;9.212;2022-09-02T17:23:39;1.70;;;1.00;;
19257;SDS011;9763;48.780;9.212;2022-09-02T17:27:03;1.50;;;0.97;;
19257;SDS011;9763;48.780;9.212;2022-09-02T17:30:27;1.50;;;0.97;;
19257;SDS011;9763;48.780;9.212;2022-09-02T17:33:53;1.43;;;0.90;;
19257;SDS011;9763;48.780;9.212;2022-09-02T17:37:18;1.60;;;0.90;;
19257;SDS011;9763;48.780;9.212;2022-09-02T17:40:42;2.10;;;0.90;;
19257;SDS011;9763;48.780;9.212;2022-09-02T17:44:24;1.40;;;1.00;;
19257;SDS011;9763;48.780;9.212;2022-09-02T17:47:56;1.93;;;1.10;;
19257;SDS011;9763;48.780;9.212;2022-09-02T17:51:41;1.40;;;0.90;;
19257;SDS011;9763;48.780;9.212;2022-09-02T17:55:05;1.27;;;0.80;;
19257;SDS011;9763;48.780;9.212;2022-09-02T17:58:30;1.60;;;1.10;;
19257;SDS011;9763;48.780;9.212;2022-09-02T18:06:17;2.10;;;1.10;;
19257;SDS011;9763;48.780;9.212;2022-09-02T18:09:49;1.50;;;1.00;;
19257;SDS011;9763;48.780;9.212;2022-09-02T18:13:14;1.50;;;1.10;;
19257;SDS011;9763;48.780;9.212;2022-09-02T18:16:49;1.50;;;1.10;;
19257;SDS011;9763;48.780;9.212;2022-09-02T18:20:25;1.73;;;0.90;;
19257;SDS011;9763;48.780;9.212;2022-09-02T18:24:01;2.07;;;1.20;;
19257;SDS011;9763;48.780;9.212;2022-09-02T18:27:41;1.60;;;1.30;;
19257;SDS011;9763;48.780;9.212;2022-09-02T18:31:23;1.50;;;1.10;;
19257;SDS011;9763;48.780;9.212;2022-09-02T18:35:09;1.40;;;1.00;;
19257;SDS011;9763;48.780;9.212;2022-09-02T18:38:48;2.30;;;1.40;;
19257;SDS011;9763;48.780;9.212;2022-09-02T18:42:29;1.43;;;0.97;;
19257;SDS011;9763;48.780;9.212;2022-09-02T18:46:06;1.60;;;1.20;;
19257;SDS011;9763;48.780;9.212;2022-09-02T18:49:34;1.97;;;1.00;;
19257;SDS011;9763;48.780;9.212;2022-09-02T18:53:00;1.93;;;1.17;;
19257;SDS011;9763;48.780;9.212;2022-09-02T18:56:24;1.50;;;1.20;;
19257;SDS011;9763;48.780;9.212;2022-09-02T18:59:58;1.70;;;1.10;;
19257;SDS011;9763;48.780;9.212;2022-09-02T19:03:28;2.37;;;1.10;;
19257;SDS011;9763;48.780;9.212;2022-09-02T19:06:56;1.73;;;1.10;;
19257;SDS011;9763;48.780;9.212;2022-09-02T19:10:35;1.47;;;0.93;;
19257;SDS011;9763;48.780;9.212;2022-09-02T19:14:05;1.77;;;1.20;;
19257;SDS011;9763;48.780;9.212;2022-09-02T19:17:44;2.37;;;0.90;;
19257;SDS011;9763;48.780;9.212;2022-09-02T19:21:10;1.60;;;1.07;;
19257;SDS011;9763;48.780;9.212;2022-09-02T19:24:40;1.73;;;1.00;;
19257;SDS011;9763;48.780;9.212;2022-09-02T19:28:10;1.50;;;1.17;;
19257;SDS011;9763;48.780;9.212;2022-09-02T19:31:37;1.50;;;1.00;;
19257;SDS011;9763;48.780;9.212;2022-09-02T19:35:06;1.90;;;0.90;;
19257;SDS011;9763;48.780;9.212;2022-09-02T19:38:37;2.30;;;1.17;;
19257;SDS011;9763;48.780;9.212;2022-09-02T19:42:01;2.10;;;1.07;;
19257;SDS011;9763;48.780;9.212;2022-09-02T19:45:25;1.50;;;1.07;;
19257;SDS011;9763;48.780;9.212;2022-09-02T19:48:50;3.80;;;1.30;;
19257;SDS011;9763;48.780;9.212;2022-09-02T19:52:15;1.40;;;1.00;;
19257;SDS011;9763;48.780;9.212;2022-09-02T19:55:40;1.50;;;1.10;;
19257;SDS011;9763;48.780;9.212;2022-09-02T19:59:04;1.73;;;0.93;;
19257;SDS011;9763;48.780;9.212;2022-09-02T20:02:27;1.50;;;1.13;;
19257;SDS011;9763;48.780;9.212;2022-09-02T20:05:51;1.40;;;1.07;;
19257;SDS011;9763;48.780;9.212;2022-09-02T20:09:16;1.83;;;1.07;;
19257;SDS011;9763;48.780;9.212;2022-09-02T20:12:43;1.57;;;1.00;;
19257;SDS011;9763;48.780;9.212;2022-09-02T20:16:13;2.00;;;1.10;;
19257;SDS011;9763;48.780;9.212;2022-09-02T20:19:40;1.50;;;0.83;;
19257;SDS011;9763;48.780;9.212;2022-09-02T20:23:05;1.40;;;1.00;;
19257;SDS011;9763;48.780;9.212;2022-09-02T20:26:34;1.50;;;1.00;;
19257;SDS011;9763;48.780;9.212;2022-09-02T20:30:12;1.60;;;1.03;;
19257;SDS011;9763;48.780;9.212;2022-09-02T20:33:38;1.70;;;1.00;;
19257;SDS011;9763;48.780;9.212;2022-09-02T20:37:15;1.40;;;0.90;;
19257;SDS011;9763;48.780;9.212;2022-09-02T20:40:55;1.60;;;1.13;;
19257;SDS011;9763;48.780;9.212;2022-09-02T20:44:34;2.27;;;1.10;;
19257;SDS011;9763;48.780;9.212;2022-09-02T20:48:15;1.30;;;0.80;;
19257;SDS011;9763;48.780;9.212;2022-09-02T20:52:00;1.40;;;1.00;;
19257;SDS011;9763;48.780;9.212;2022-09-02T20:55:34;1.50;;;1.07;;
19257;SDS011;9763;48.780;9.212;2022-09-02T20:59:07;1.47;;;0.87;;
19257;SDS011;9763;48.780;9.212;2022-09-02T21:02:48;1.37;;;0.93;;
19257;SDS011;9763;48.780;9.212;2022-09-02T21:06:22;1.60;;;1.00;;
19257;SDS011;9763;48.780;9.212;2022-09-02T21:09:54;1.40;;;1.00;;
19257;SDS011;9763;48.780;9.212;2022-09-02T21:13:32;3.10;;;1.10;;
19257;SDS011;9763;48.780;9.212;2022-09-02T21:17:05;1.40;;;1.07;;
19257;SDS011;9763;48.780;9.212;2022-09-02T21:20:41;1.33;;;0.90;;
19257;SDS011;9763;48.780;9.212;2022-09-02T21:24:13;1.40;;;1.13;;
19257;SDS011;9763;48.780;9.212;2022-09-02T21:27:44;1.97;;;0.93;;
19257;SDS011;9763;48.780;9.212;2022-09-02T21:31:13;1.33;;;0.90;;
19257;SDS011;9763;48.780;9.212;2022-09-02T21:34:49;1.53;;;0.93;;
19257;SDS011;9763;48.780;9.212;2022-09-02T21:38:23;1.40;;;0.90;;
19257;SDS011;9763;48.780;9.212;2022-09-02T21:41:59;2.33;;;1.07;;
19257;SDS011;9763;48.780;9.212;2022-09-02T21:45:41;1.30;;;0.80;;
19257;SDS011;9763;48.780;9.212;2022-09-02T21:49:21;2.07;;;0.80;;
19257;SDS011;9763;48.780;9.212;2022-09-02T21:53:07;1.40;;;1.00;;